createdAt,value
2024-04-18T00:01:00.061Z,6.20
2024-04-18T00:01:59.888Z,4.20
2024-04-18T00:02:59.876Z,5.50
2024-04-18T00:03:59.934Z,5.50
2024-04-18T00:04:59.935Z,5.20
2024-04-18T00:05:59.820Z,4.40
2024-04-18T00:06:59.836Z,5.00
2024-04-18T00:07:59.796Z,5.40
2024-04-18T00:08:59.815Z,7.00
2024-04-18T00:09:59.768Z,3.90
2024-04-18T00:10:59.851Z,4.00
2024-04-18T00:11:59.748Z,5.20
2024-04-18T00:12:59.736Z,3.70
2024-04-18T00:13:59.745Z,4.00
2024-04-18T00:14:59.688Z,5.30
2024-04-18T00:15:59.696Z,5.70
2024-04-18T00:16:59.694Z,5.70
2024-04-18T00:17:59.808Z,4.80
2024-04-18T00:18:59.779Z,3.90
2024-04-18T00:19:59.646Z,5.20
2024-04-18T00:20:59.617Z,5.30
2024-04-18T00:21:59.648Z,5.80
2024-04-18T00:22:59.597Z,5.80
2024-04-18T00:23:59.580Z,6.50
2024-04-18T00:24:59.584Z,4.40
2024-04-18T00:25:59.582Z,6.60
2024-04-18T00:26:59.576Z,4.60
2024-04-18T00:27:59.542Z,5.70
2024-04-18T00:28:59.521Z,3.80
2024-04-18T00:29:59.542Z,4.50
2024-04-18T00:30:59.490Z,6.00
2024-04-18T00:31:59.525Z,5.10
2024-04-18T00:32:59.546Z,5.10
2024-04-18T00:33:59.472Z,5.00
2024-04-18T00:34:59.491Z,4.40
2024-04-18T00:35:59.450Z,4.80
2024-04-18T00:36:59.428Z,6.30
2024-04-18T00:37:59.393Z,5.40
2024-04-18T00:38:59.401Z,8.30
2024-04-18T00:39:59.372Z,5.00
2024-04-18T00:40:59.363Z,3.60
2024-04-18T00:41:59.366Z,4.70
2024-04-18T00:42:59.324Z,6.00
2024-04-18T00:44:02.517Z,5.50
2024-04-18T00:44:59.315Z,7.30
2024-04-18T00:45:59.336Z,6.70
2024-04-18T00:46:59.299Z,6.70
2024-04-18T00:47:59.327Z,5.70
2024-04-18T00:48:59.499Z,4.50
2024-04-18T00:49:59.265Z,6.50
2024-04-18T00:50:59.252Z,7.30
2024-04-18T00:51:59.206Z,5.40
2024-04-18T00:52:59.198Z,6.10
2024-04-18T00:53:59.193Z,6.20
2024-04-18T00:54:59.187Z,5.60
2024-04-18T00:55:59.156Z,6.70
2024-04-18T00:56:59.149Z,5.50
2024-04-18T00:57:59.141Z,5.10
2024-04-18T00:58:59.147Z,6.20
2024-04-18T00:59:59.119Z,5.70
2024-04-18T01:00:59.208Z,6.40
2024-04-18T01:01:59.114Z,5.30
2024-04-18T01:02:59.097Z,5.30
2024-04-18T01:03:59.296Z,6.10
2024-04-18T01:04:59.069Z,5.40
2024-04-18T01:05:59.037Z,6.20
2024-04-18T01:06:59.008Z,9.10
2024-04-18T01:07:59.360Z,7.30
2024-04-18T01:08:58.980Z,7.00
2024-04-18T01:09:59.002Z,5.10
2024-04-18T01:10:58.963Z,6.50
2024-04-18T01:11:58.994Z,5.10
2024-04-18T01:12:58.933Z,6.40
2024-04-18T01:13:58.990Z,6.60
2024-04-18T01:14:58.925Z,7.80
2024-04-18T01:15:58.989Z,4.60
2024-04-18T01:16:58.952Z,4.90
2024-04-18T01:17:58.938Z,5.90
2024-04-18T01:18:58.940Z,5.10
2024-04-18T01:19:58.892Z,7.10
2024-04-18T01:20:58.829Z,5.10
2024-04-18T01:22:01.000Z,7.90
2024-04-18T01:22:58.857Z,6.50
2024-04-18T01:23:58.832Z,5.10
2024-04-18T01:24:58.791Z,6.60
2024-04-18T01:25:58.781Z,6.40
2024-04-18T01:26:58.766Z,6.40
2024-04-18T01:27:58.767Z,6.60
2024-04-18T01:28:58.768Z,9.30
2024-04-18T01:29:58.720Z,6.60
2024-04-18T01:30:58.696Z,7.10
2024-04-18T01:31:58.734Z,9.70
2024-04-18T01:32:58.746Z,6.60
2024-04-18T01:33:58.715Z,6.40
2024-04-18T01:34:58.678Z,8.50
2024-04-18T01:35:58.653Z,6.70
2024-04-18T01:36:58.628Z,5.70
2024-04-18T01:37:58.642Z,7.50
2024-04-18T01:38:58.620Z,7.20
2024-04-18T01:39:58.622Z,6.80
2024-04-18T01:40:58.563Z,7.20
2024-04-18T01:41:58.561Z,6.60
2024-04-18T01:42:58.574Z,7.20
2024-04-18T01:43:58.530Z,6.60
2024-04-18T01:44:58.522Z,5.60
2024-04-18T01:45:58.518Z,7.10
2024-04-18T01:46:58.492Z,6.10
2024-04-18T01:47:58.590Z,5.30
2024-04-18T01:48:58.568Z,7.50
2024-04-18T01:49:58.464Z,6.90
2024-04-18T01:50:58.464Z,6.40
2024-04-18T01:51:58.446Z,7.70
2024-04-18T01:52:58.414Z,6.50
2024-04-18T01:53:58.398Z,8.70
2024-04-18T01:54:58.426Z,6.80
2024-04-18T01:55:58.371Z,7.10
2024-04-18T01:56:58.354Z,7.90
2024-04-18T01:57:58.368Z,5.50
2024-04-18T01:58:58.350Z,7.80
2024-04-18T01:59:58.329Z,6.80
2024-04-18T02:00:58.437Z,6.60
2024-04-18T02:01:58.347Z,6.00
2024-04-18T02:02:58.356Z,6.70
2024-04-18T02:03:58.386Z,6.50
2024-04-18T02:04:58.322Z,6.40
2024-04-18T02:05:58.253Z,6.50
2024-04-18T02:06:58.256Z,7.50
2024-04-18T02:07:58.214Z,7.80
2024-04-18T02:08:58.218Z,4.30
2024-04-18T02:09:58.191Z,6.10
2024-04-18T02:10:58.200Z,6.50
2024-04-18T02:11:58.159Z,7.50
2024-04-18T02:12:58.163Z,8.00
2024-04-18T02:13:58.172Z,6.40
2024-04-18T02:14:58.137Z,6.50
2024-04-18T02:15:58.106Z,8.50
2024-04-18T02:16:58.113Z,6.50
2024-04-18T02:17:58.093Z,7.00
2024-04-18T02:18:58.143Z,8.10
2024-04-18T02:19:58.072Z,7.40
2024-04-18T02:20:58.050Z,7.80
2024-04-18T02:21:58.082Z,8.40
2024-04-18T02:22:58.019Z,7.50
2024-04-18T02:23:58.008Z,6.20
2024-04-18T02:24:58.029Z,7.60
2024-04-18T02:25:57.997Z,7.30
2024-04-18T02:26:58.366Z,6.60
2024-04-18T02:27:57.964Z,7.60
2024-04-18T02:28:57.941Z,7.50
2024-04-18T02:29:57.972Z,6.20
2024-04-18T02:30:57.983Z,5.80
2024-04-18T02:31:57.912Z,6.40
2024-04-18T02:32:57.902Z,6.60
2024-04-18T02:33:57.909Z,7.20
2024-04-18T02:34:57.917Z,8.10
2024-04-18T02:35:57.868Z,6.30
2024-04-18T02:36:57.848Z,5.60
2024-04-18T02:37:57.857Z,8.10
2024-04-18T02:38:57.814Z,6.30
2024-04-18T02:39:57.809Z,7.10
2024-04-18T02:40:57.802Z,6.90
2024-04-18T02:41:57.789Z,7.80
2024-04-18T02:42:57.744Z,6.60
2024-04-18T02:43:57.767Z,6.90
2024-04-18T02:44:57.749Z,7.50
2024-04-18T02:45:57.736Z,7.90
2024-04-18T02:46:57.769Z,7.40
2024-04-18T02:47:57.724Z,8.30
2024-04-18T02:48:57.754Z,9.20
2024-04-18T02:49:57.671Z,6.50
2024-04-18T02:50:57.688Z,8.60
2024-04-18T02:51:57.806Z,7.80
2024-04-18T02:52:57.618Z,8.90
2024-04-18T02:53:57.604Z,6.70
2024-04-18T02:54:57.642Z,7.60
2024-04-18T02:55:57.606Z,8.40
2024-04-18T02:56:57.585Z,7.00
2024-04-18T02:57:57.665Z,8.60
2024-04-18T02:58:57.559Z,9.00
2024-04-18T02:59:57.547Z,8.50
2024-04-18T03:00:57.567Z,7.40
2024-04-18T03:01:57.494Z,8.70
2024-04-18T03:02:57.561Z,8.20
2024-04-18T03:03:57.567Z,9.10
2024-04-18T03:04:57.468Z,8.70
2024-04-18T03:05:57.474Z,17.90
2024-04-18T03:06:57.442Z,15.80
2024-04-18T03:07:57.454Z,10.60
2024-04-18T03:08:57.419Z,8.60
2024-04-18T03:09:57.398Z,8.10
2024-04-18T03:10:57.425Z,10.00
2024-04-18T03:11:57.386Z,7.30
2024-04-18T03:12:57.350Z,10.60
2024-04-18T03:13:57.375Z,6.20
2024-04-18T03:14:57.326Z,8.40
2024-04-18T03:15:57.399Z,9.20
2024-04-18T03:16:57.327Z,8.20
2024-04-18T03:17:57.455Z,7.50
2024-04-18T03:18:57.391Z,7.50
2024-04-18T03:19:57.302Z,9.00
2024-04-18T03:20:57.270Z,8.30
2024-04-18T03:21:57.267Z,7.40
2024-04-18T03:22:57.248Z,8.50
2024-04-18T03:23:57.215Z,8.10
2024-04-18T03:24:57.292Z,8.20
2024-04-18T03:25:57.206Z,8.60
2024-04-18T03:26:57.243Z,7.50
2024-04-18T03:27:57.154Z,9.80
2024-04-18T03:28:57.177Z,12.10
2024-04-18T03:29:57.180Z,8.50
2024-04-18T03:30:57.137Z,7.60
2024-04-18T03:31:57.169Z,9.50
2024-04-18T03:32:57.146Z,9.50
2024-04-18T03:33:57.115Z,9.30
2024-04-18T03:34:57.083Z,7.30
2024-04-18T03:35:57.088Z,8.20
2024-04-18T03:36:57.056Z,8.10
2024-04-18T03:37:57.043Z,9.30
2024-04-18T03:38:57.026Z,9.00
2024-04-18T03:39:57.057Z,8.60
2024-04-18T03:40:57.002Z,8.20
2024-04-18T03:41:57.016Z,9.30
2024-04-18T03:42:57.002Z,6.70
2024-04-18T03:43:56.968Z,10.00
2024-04-18T03:44:56.983Z,10.60
2024-04-18T03:45:57.006Z,7.90
2024-04-18T03:46:56.942Z,9.20
2024-04-18T03:47:56.981Z,8.50
2024-04-18T03:48:56.940Z,8.20
2024-04-18T03:49:56.867Z,7.80
2024-04-18T03:50:56.868Z,8.40
2024-04-18T03:51:56.930Z,7.60
2024-04-18T03:52:56.872Z,8.90
2024-04-18T03:53:56.823Z,8.30
2024-04-18T03:55:02.121Z,8.10
2024-04-18T03:55:56.829Z,9.30
2024-04-18T03:56:56.790Z,10.20
2024-04-18T03:57:56.815Z,8.10
2024-04-18T03:58:56.755Z,9.30
2024-04-18T03:59:56.758Z,8.70
2024-04-18T04:00:56.774Z,8.00
2024-04-18T04:01:56.759Z,8.30
2024-04-18T04:02:56.723Z,8.30
2024-04-18T04:03:56.857Z,8.40
2024-04-18T04:04:56.687Z,8.40
2024-04-18T04:05:56.684Z,10.10
2024-04-18T04:06:56.678Z,10.30
2024-04-18T04:07:56.715Z,9.50
2024-04-18T04:08:56.651Z,7.90
2024-04-18T04:09:56.618Z,7.70
2024-04-18T04:10:56.701Z,8.80
2024-04-18T04:11:56.615Z,7.30
2024-04-18T04:12:56.625Z,8.90
2024-04-18T04:14:00.269Z,7.40
2024-04-18T04:14:56.566Z,7.60
2024-04-18T04:15:56.582Z,7.40
2024-04-18T04:16:56.546Z,11.70
2024-04-18T04:17:56.843Z,8.50
2024-04-18T04:18:57.655Z,8.50
2024-04-18T04:19:56.503Z,6.50
2024-04-18T04:20:56.466Z,7.40
2024-04-18T04:21:56.548Z,6.60
2024-04-18T04:22:56.467Z,9.20
2024-04-18T04:23:56.436Z,6.30
2024-04-18T04:24:56.468Z,8.20
2024-04-18T04:25:56.401Z,6.30
2024-04-18T04:26:56.395Z,6.20
2024-04-18T04:27:56.466Z,5.60
2024-04-18T04:28:56.361Z,6.30
2024-04-18T04:29:56.348Z,6.20
2024-04-18T04:30:56.448Z,6.20
2024-04-18T04:31:56.348Z,7.10
2024-04-18T04:32:56.434Z,7.30
2024-04-18T04:33:56.317Z,6.30
2024-04-18T04:34:56.285Z,5.70
2024-04-18T04:35:56.281Z,8.10
2024-04-18T04:36:56.315Z,6.70
2024-04-18T04:37:56.249Z,5.80
2024-04-18T04:38:56.290Z,6.00
2024-04-18T04:39:56.245Z,6.30
2024-04-18T04:40:56.247Z,4.60
2024-04-18T04:41:56.198Z,5.80
2024-04-18T04:43:00.133Z,4.80
2024-04-18T04:43:56.189Z,4.70
2024-04-18T04:44:56.154Z,5.30
2024-04-18T04:45:56.232Z,6.10
2024-04-18T04:46:56.141Z,4.70
2024-04-18T04:47:56.250Z,4.10
2024-04-18T04:48:56.228Z,5.60
2024-04-18T04:49:56.097Z,4.70
2024-04-18T04:50:56.088Z,5.20
2024-04-18T04:51:56.104Z,5.80
2024-04-18T04:52:56.046Z,5.00
2024-04-18T04:53:56.112Z,4.70
2024-04-18T04:54:56.107Z,4.60
2024-04-18T04:55:56.011Z,6.10
2024-04-18T04:56:56.015Z,5.10
2024-04-18T04:57:56.017Z,6.40
2024-04-18T04:58:56.003Z,5.00
2024-04-18T04:59:55.968Z,6.10
2024-04-18T05:00:56.077Z,5.50
2024-04-18T05:01:55.942Z,6.30
2024-04-18T05:02:56.025Z,6.60
2024-04-18T05:03:56.113Z,5.50
2024-04-18T05:04:55.929Z,7.00
2024-04-18T05:05:55.886Z,6.20
2024-04-18T05:06:55.937Z,6.60
2024-04-18T05:07:56.020Z,5.70
2024-04-18T05:08:55.872Z,6.80
2024-04-18T05:09:55.914Z,8.00
2024-04-18T05:10:55.910Z,6.80
2024-04-18T05:11:55.789Z,7.30
2024-04-18T05:12:55.848Z,6.60
2024-04-18T05:13:55.776Z,5.40
2024-04-18T05:14:55.773Z,4.60
2024-04-18T05:15:55.975Z,6.00
2024-04-18T05:16:55.790Z,4.40
2024-04-18T05:17:55.806Z,5.40
2024-04-18T05:18:55.728Z,5.30
2024-04-18T05:19:56.336Z,5.20
2024-04-18T05:20:55.721Z,4.70
2024-04-18T05:21:55.692Z,6.10
2024-04-18T05:22:55.658Z,4.70
2024-04-18T05:23:55.675Z,5.10
2024-04-18T05:24:55.682Z,4.60
2024-04-18T05:25:55.658Z,5.00
2024-04-18T05:26:55.636Z,5.70
2024-04-18T05:27:55.611Z,3.80
2024-04-18T05:28:55.575Z,5.20
2024-04-18T05:29:55.595Z,5.50
2024-04-18T05:30:55.647Z,5.60
2024-04-18T05:31:55.600Z,4.50
2024-04-18T05:32:55.663Z,6.00
2024-04-18T05:33:55.527Z,4.10
2024-04-18T05:34:55.533Z,6.30
2024-04-18T05:35:55.497Z,4.60
2024-04-18T05:36:55.541Z,5.20
2024-04-18T05:37:55.466Z,5.30
2024-04-18T05:38:55.474Z,5.30
2024-04-18T05:39:55.532Z,5.10
2024-04-18T05:40:55.504Z,5.90
2024-04-18T05:41:55.455Z,6.30
2024-04-18T05:42:55.424Z,8.10
2024-04-18T05:43:55.401Z,6.70
2024-04-18T05:44:55.361Z,6.50
2024-04-18T05:45:55.537Z,5.10
2024-04-18T05:46:55.417Z,6.10
2024-04-18T05:47:55.440Z,6.80
2024-04-18T05:48:55.417Z,6.20
2024-04-18T05:49:55.296Z,6.50
2024-04-18T05:50:55.301Z,6.10
2024-04-18T05:51:55.331Z,7.50
2024-04-18T05:52:55.283Z,8.10
2024-04-18T05:53:55.257Z,8.90
2024-04-18T05:54:55.409Z,9.60
2024-04-18T05:55:55.290Z,8.50
2024-04-18T05:56:55.263Z,8.80
2024-04-18T05:57:55.265Z,10.60
2024-04-18T05:58:55.243Z,6.40
2024-04-18T05:59:55.326Z,7.40
2024-04-18T06:00:55.289Z,9.90
2024-04-18T06:01:55.211Z,7.40
2024-04-18T06:02:55.204Z,8.10
2024-04-18T06:03:55.256Z,8.70
2024-04-18T06:04:55.139Z,8.80
2024-04-18T06:05:55.106Z,10.80
2024-04-18T06:06:55.145Z,10.30
2024-04-18T06:07:55.112Z,9.80
2024-04-18T06:08:55.220Z,8.50
2024-04-18T06:09:55.117Z,9.10
2024-04-18T06:10:55.066Z,9.60
2024-04-18T06:11:55.070Z,10.70
2024-04-18T06:12:55.089Z,9.80
2024-04-18T06:13:54.998Z,11.20
2024-04-18T06:14:54.988Z,10.10
2024-04-18T06:15:55.014Z,11.30
2024-04-18T06:16:55.004Z,8.90
2024-04-18T06:17:54.959Z,6.20
2024-04-18T06:18:54.974Z,6.00
2024-04-18T06:19:54.938Z,4.60
2024-04-18T06:20:54.958Z,4.10
2024-04-18T06:21:54.975Z,4.00
2024-04-18T06:22:54.885Z,4.10
2024-04-18T06:23:54.913Z,3.30
2024-04-18T06:24:54.971Z,3.60
2024-04-18T06:25:54.847Z,4.10
2024-04-18T06:26:54.825Z,2.50
2024-04-18T06:27:54.909Z,3.40
2024-04-18T06:28:54.816Z,4.10
2024-04-18T06:29:54.787Z,4.00
2024-04-18T06:30:54.962Z,3.70
2024-04-18T06:31:54.746Z,3.50
2024-04-18T06:32:54.821Z,3.90
2024-04-18T06:33:54.960Z,2.80
2024-04-18T06:34:54.723Z,3.30
2024-04-18T06:35:54.706Z,4.40
2024-04-18T06:36:54.805Z,4.70
2024-04-18T06:37:54.690Z,3.00
2024-04-18T06:38:54.686Z,3.40
2024-04-18T06:39:54.970Z,3.10
2024-04-18T06:40:54.660Z,3.10
2024-04-18T06:41:54.650Z,3.60
2024-04-18T06:42:54.666Z,3.20
2024-04-18T06:43:54.629Z,4.00
2024-04-18T06:44:54.646Z,4.40
2024-04-18T06:45:54.679Z,3.30
2024-04-18T06:47:00.550Z,3.10
2024-04-18T06:47:54.603Z,3.70
2024-04-18T06:48:54.600Z,5.50
2024-04-18T06:49:54.539Z,3.00
2024-04-18T06:50:54.562Z,3.20
2024-04-18T06:51:54.632Z,2.70
2024-04-18T06:52:54.600Z,3.40
2024-04-18T06:53:54.477Z,2.30
2024-04-18T06:54:54.636Z,4.10
2024-04-18T06:55:54.469Z,3.50
2024-04-18T06:56:54.477Z,3.00
2024-04-18T06:57:54.488Z,2.80
2024-04-18T06:58:54.434Z,3.00
2024-04-18T06:59:54.395Z,2.90
2024-04-18T07:00:54.460Z,2.30
2024-04-18T07:01:54.379Z,2.70
2024-04-18T07:02:54.435Z,3.30
2024-04-18T07:03:54.504Z,3.20
2024-04-18T07:04:54.430Z,2.70
2024-04-18T07:05:54.336Z,2.20
2024-04-18T07:06:54.440Z,2.40
2024-04-18T07:07:54.304Z,2.30
2024-04-18T07:08:54.351Z,2.60
2024-04-18T07:09:54.298Z,2.90
2024-04-18T07:10:54.576Z,2.70
2024-04-18T07:11:54.272Z,3.90
2024-04-18T07:12:54.357Z,2.30
2024-04-18T07:13:54.262Z,2.00
2024-04-18T07:14:54.206Z,2.80
2024-04-18T07:15:54.259Z,2.20
2024-04-18T07:16:54.197Z,3.50
2024-04-18T07:17:54.297Z,2.20
2024-04-18T07:18:54.331Z,1.90
2024-04-18T07:19:54.153Z,2.00
2024-04-18T07:20:54.174Z,2.70
2024-04-18T07:21:54.236Z,2.00
2024-04-18T07:22:54.135Z,1.80
2024-04-18T07:23:54.097Z,2.40
2024-04-18T07:24:54.256Z,2.90
2024-04-18T07:25:54.095Z,2.40
2024-04-18T07:26:56.287Z,1.80
2024-04-18T07:27:54.103Z,1.70
2024-04-18T07:28:54.021Z,2.90
2024-04-18T07:29:54.043Z,3.00
2024-04-18T07:30:54.080Z,1.80
2024-04-18T07:31:53.999Z,2.10
2024-04-18T07:32:54.021Z,1.20
2024-04-18T07:33:54.076Z,1.40
2024-04-18T07:34:53.934Z,2.10
2024-04-18T07:35:53.936Z,1.40
2024-04-18T07:36:54.002Z,1.50
2024-04-18T07:37:53.906Z,1.40
2024-04-18T07:38:53.931Z,1.50
2024-04-18T07:39:53.910Z,1.40
2024-04-18T07:40:53.891Z,1.90
2024-04-18T07:41:53.914Z,1.90
2024-04-18T07:42:54.016Z,1.40
2024-04-18T07:43:53.842Z,1.70
2024-04-18T07:44:53.812Z,1.40
2024-04-18T07:45:53.926Z,1.40
2024-04-18T07:46:53.838Z,1.60
2024-04-18T07:47:53.831Z,1.60
2024-04-18T07:48:53.806Z,2.20
2024-04-18T07:49:53.765Z,2.50
2024-04-18T07:50:53.772Z,2.30
2024-04-18T07:51:53.814Z,1.80
2024-04-18T07:53:00.783Z,2.60
2024-04-18T07:53:53.700Z,2.00
2024-04-18T07:54:53.739Z,2.30
2024-04-18T07:55:53.741Z,2.00
2024-04-18T07:56:54.095Z,2.70
2024-04-18T07:57:54.194Z,2.00
2024-04-18T07:58:54.470Z,1.50
2024-04-18T07:59:54.026Z,1.70
2024-04-18T08:00:55.295Z,1.60
2024-04-18T08:01:55.011Z,1.40
2024-04-18T08:02:55.830Z,1.70
2024-04-18T08:04:08.354Z,1.90
2024-04-18T08:04:58.030Z,2.30
2024-04-18T08:05:55.402Z,1.70
2024-04-18T08:06:56.541Z,1.60
2024-04-18T08:07:56.388Z,1.80
2024-04-18T08:08:56.952Z,1.60
2024-04-18T08:09:57.217Z,2.30
2024-04-18T08:12:18.325Z,1.80
2024-04-18T08:12:55.868Z,2.00
2024-04-18T08:13:57.445Z,2.10
2024-04-18T08:14:56.038Z,2.60
2024-04-18T08:16:53.459Z,2.20
2024-04-18T08:17:53.499Z,3.40
2024-04-18T08:18:53.375Z,1.80
2024-04-18T08:19:53.381Z,1.90
2024-04-18T08:20:53.342Z,1.90
2024-04-18T08:21:53.328Z,2.80
2024-04-18T08:22:53.330Z,2.10
2024-04-18T08:23:53.367Z,2.10
2024-04-18T08:24:53.289Z,1.60
2024-04-18T08:25:53.301Z,1.50
2024-04-18T08:26:53.259Z,1.80
2024-04-18T08:27:53.261Z,1.40
2024-04-18T08:28:53.263Z,1.70
2024-04-18T08:29:53.232Z,1.90
2024-04-18T08:30:53.271Z,2.70
2024-04-18T08:31:53.229Z,2.00
2024-04-18T08:32:53.225Z,2.00
2024-04-18T08:33:58.246Z,1.90
2024-04-18T08:34:53.282Z,2.00
2024-04-18T08:35:53.174Z,1.60
2024-04-18T08:36:53.163Z,1.80
2024-04-18T08:37:53.123Z,1.90
2024-04-18T08:38:53.139Z,1.70
2024-04-18T08:39:53.097Z,1.10
2024-04-18T08:40:53.102Z,1.10
2024-04-18T08:41:53.198Z,1.30
2024-04-18T08:42:53.062Z,2.10
2024-04-18T08:43:57.263Z,1.40
2024-04-18T08:44:53.033Z,1.40
2024-04-18T08:45:53.050Z,1.70
2024-04-18T08:46:53.008Z,1.30
2024-04-18T08:47:53.075Z,2.30
2024-04-18T08:48:53.283Z,1.60
2024-04-18T08:49:52.987Z,1.50
2024-04-18T08:50:52.971Z,3.10
2024-04-18T08:51:52.962Z,1.60
2024-04-18T08:52:52.921Z,1.60
2024-04-18T08:53:52.945Z,1.80
2024-04-18T08:54:52.927Z,1.90
2024-04-18T08:55:52.915Z,2.60
2024-04-18T08:56:52.915Z,3.10
2024-04-18T08:57:52.862Z,2.40
2024-04-18T08:58:52.841Z,3.00
2024-04-18T08:59:52.847Z,4.30
2024-04-18T09:00:52.839Z,2.90
2024-04-18T09:01:52.878Z,3.60
2024-04-18T09:02:52.953Z,3.80
2024-04-18T09:03:52.800Z,3.60
2024-04-18T09:04:52.799Z,3.40
2024-04-18T09:05:52.748Z,3.10
2024-04-18T09:06:52.747Z,2.70
2024-04-18T09:07:52.739Z,3.70
2024-04-18T09:08:52.706Z,4.20
2024-04-18T09:09:52.754Z,4.30
2024-04-18T09:10:52.714Z,3.90
2024-04-18T09:11:52.693Z,4.60
2024-04-18T09:12:52.699Z,4.50
2024-04-18T09:13:52.656Z,8.10
2024-04-18T09:14:52.661Z,5.50
2024-04-18T09:15:52.682Z,6.50
2024-04-18T09:16:52.718Z,5.40
2024-04-18T09:17:52.657Z,5.00
2024-04-18T09:18:52.682Z,5.40
2024-04-18T09:19:53.459Z,6.20
2024-04-18T09:20:52.571Z,9.80
2024-04-18T09:21:52.584Z,8.80
2024-04-18T09:22:52.535Z,7.40
2024-04-18T09:23:52.554Z,7.00
2024-04-18T09:24:52.519Z,9.60
2024-04-18T09:25:52.522Z,9.30
2024-04-18T09:26:52.486Z,9.50
2024-04-18T09:27:52.475Z,9.00
2024-04-18T09:28:52.469Z,6.00
2024-04-18T09:29:52.461Z,4.70
2024-04-18T09:30:52.491Z,7.00
2024-04-18T09:31:52.418Z,7.00
2024-04-18T09:32:52.451Z,8.10
2024-04-18T09:33:52.524Z,9.00
2024-04-18T09:34:52.397Z,7.00
2024-04-18T09:35:52.424Z,8.20
2024-04-18T09:36:53.334Z,9.10
2024-04-18T09:37:56.968Z,10.40
2024-04-18T09:38:52.341Z,9.70
2024-04-18T09:39:52.408Z,11.50
2024-04-18T09:40:52.318Z,8.70
2024-04-18T09:41:52.281Z,7.50
2024-04-18T09:42:52.342Z,9.80
2024-04-18T09:43:52.263Z,9.10
2024-04-18T09:44:52.280Z,8.50
2024-04-18T09:45:52.261Z,9.40
2024-04-18T09:46:52.372Z,9.20
2024-04-18T09:47:52.305Z,11.50
2024-04-18T09:48:52.212Z,9.70
2024-04-18T09:49:54.041Z,8.10
2024-04-18T09:50:52.173Z,8.70
2024-04-18T09:51:52.167Z,9.00
2024-04-18T09:52:52.143Z,9.20
2024-04-18T09:53:52.393Z,10.90
2024-04-18T09:54:52.099Z,9.10
2024-04-18T09:55:52.116Z,9.10
2024-04-18T09:56:52.100Z,7.30
2024-04-18T09:57:52.118Z,8.90
2024-04-18T09:58:52.159Z,8.50
2024-04-18T09:59:52.078Z,9.10
2024-04-18T10:00:52.076Z,9.80
2024-04-18T10:01:52.100Z,10.20
2024-04-18T10:02:52.021Z,9.40
2024-04-18T10:03:52.222Z,8.30
2024-04-18T10:04:52.017Z,9.50
2024-04-18T10:05:52.010Z,10.20
2024-04-18T10:06:51.980Z,9.20
2024-04-18T10:07:51.947Z,10.00
2024-04-18T10:08:51.963Z,10.80
2024-04-18T10:09:51.966Z,9.90
2024-04-18T10:10:51.938Z,11.20
2024-04-18T10:11:51.894Z,10.60
2024-04-18T10:12:51.881Z,11.00
2024-04-18T10:13:51.881Z,10.40
2024-04-18T10:14:51.897Z,12.60
2024-04-18T10:15:51.880Z,12.80
2024-04-18T10:16:51.868Z,10.40
2024-04-18T10:17:51.871Z,9.80
2024-04-18T10:18:54.050Z,10.50
2024-04-18T10:19:51.826Z,9.70
2024-04-18T10:20:51.787Z,9.80
2024-04-18T10:22:01.899Z,11.90
2024-04-18T10:22:51.798Z,9.90
2024-04-18T10:23:51.745Z,10.70
2024-04-18T10:24:51.719Z,10.30
2024-04-18T10:25:51.772Z,12.70
2024-04-18T10:26:51.740Z,10.90
2024-04-18T10:27:51.727Z,11.80
2024-04-18T10:28:51.680Z,12.50
2024-04-18T10:29:51.663Z,11.10
2024-04-18T10:30:51.651Z,10.50
2024-04-18T10:31:51.649Z,10.70
2024-04-18T10:32:51.745Z,11.30
2024-04-18T10:33:51.656Z,10.30
2024-04-18T10:34:51.611Z,14.90
2024-04-18T10:35:51.589Z,11.30
2024-04-18T10:36:51.585Z,10.60
2024-04-18T10:37:51.574Z,12.50
2024-04-18T10:38:51.580Z,10.30
2024-04-18T10:39:51.556Z,11.90
2024-04-18T10:40:52.291Z,11.10
2024-04-18T10:41:51.534Z,8.50
2024-04-18T10:42:51.522Z,10.00
2024-04-18T10:43:51.500Z,11.70
2024-04-18T10:44:51.509Z,11.80
2024-04-18T10:45:51.467Z,10.00
2024-04-18T10:46:51.475Z,10.60
2024-04-18T10:47:51.487Z,11.70
2024-04-18T10:48:51.641Z,12.10
2024-04-18T10:49:51.396Z,9.90
2024-04-18T10:50:51.413Z,8.60
2024-04-18T10:51:51.379Z,10.30
2024-04-18T10:52:51.398Z,8.60
2024-04-18T10:53:51.373Z,9.30
2024-04-18T10:54:51.353Z,11.00
2024-04-18T10:55:51.347Z,11.00
2024-04-18T10:56:51.302Z,10.60
2024-04-18T10:57:51.318Z,10.60
2024-04-18T10:58:51.288Z,10.10
2024-04-18T10:59:51.327Z,11.20
2024-04-18T11:00:51.398Z,9.60
2024-04-18T11:01:51.271Z,11.20
2024-04-18T11:02:51.257Z,12.00
2024-04-18T11:03:51.436Z,12.80
2024-04-18T11:04:51.213Z,11.80
2024-04-18T11:05:51.222Z,10.60
2024-04-18T11:06:51.237Z,9.80
2024-04-18T11:07:51.207Z,12.80
2024-04-18T11:08:51.169Z,9.60
2024-04-18T11:09:51.153Z,11.30
2024-04-18T11:10:51.275Z,11.10
2024-04-18T11:11:51.117Z,11.00
2024-04-18T11:12:51.125Z,12.40
2024-04-18T11:13:51.172Z,12.60
2024-04-18T11:14:51.098Z,12.40
2024-04-18T11:15:51.122Z,10.70
2024-04-18T11:16:51.099Z,12.00
2024-04-18T11:17:51.127Z,12.00
2024-04-18T11:18:51.145Z,10.70
2024-04-18T11:19:51.011Z,12.10
2024-04-18T11:20:51.028Z,12.20
2024-04-18T11:21:50.985Z,11.80
2024-04-18T11:22:57.220Z,12.00
2024-04-18T11:23:51.795Z,11.60
2024-04-18T11:24:51.040Z,11.80
2024-04-18T11:25:50.934Z,10.50
2024-04-18T11:26:50.923Z,8.50
2024-04-18T11:27:50.973Z,10.00
2024-04-18T11:28:50.986Z,10.30
2024-04-18T11:29:50.896Z,10.50
2024-04-18T11:30:50.916Z,10.00
2024-04-18T11:31:50.868Z,10.00
2024-04-18T11:32:50.999Z,8.30
2024-04-18T11:33:50.924Z,10.40
2024-04-18T11:34:57.105Z,9.30
2024-04-18T11:35:50.801Z,10.40
2024-04-18T11:36:50.803Z,7.50
2024-04-18T11:37:50.833Z,8.70
2024-04-18T11:38:50.803Z,8.60
2024-04-18T11:39:50.765Z,8.50
2024-04-18T11:40:50.771Z,8.20
2024-04-18T11:41:50.776Z,9.00
2024-04-18T11:42:50.716Z,8.00
2024-04-18T11:43:50.696Z,8.70
2024-04-18T11:44:50.744Z,7.70
2024-04-18T11:45:50.680Z,9.60
2024-04-18T11:46:50.652Z,8.70
2024-04-18T11:47:50.742Z,7.50
2024-04-18T11:48:50.797Z,8.10
2024-04-18T11:49:50.663Z,8.10
2024-04-18T11:50:50.641Z,8.40
2024-04-18T11:51:50.609Z,8.20
2024-04-18T11:52:50.624Z,8.10
2024-04-18T11:53:50.612Z,7.70
2024-04-18T11:54:50.637Z,7.30
2024-04-18T11:55:50.568Z,9.00
2024-04-18T11:56:50.550Z,9.20
2024-04-18T11:57:50.513Z,8.60
2024-04-18T11:58:50.540Z,7.50
2024-04-18T11:59:50.511Z,7.40
2024-04-18T12:00:50.494Z,8.40
2024-04-18T12:01:50.461Z,9.10
2024-04-18T12:02:50.498Z,9.00
2024-04-18T12:03:50.564Z,8.90
2024-04-18T12:04:50.456Z,9.10
2024-04-18T12:05:50.432Z,9.20
2024-04-18T12:06:51.159Z,7.10
2024-04-18T12:07:50.417Z,8.50
2024-04-18T12:08:54.021Z,10.00
2024-04-18T12:09:50.356Z,7.60
2024-04-18T12:10:50.380Z,8.90
2024-04-18T12:11:50.422Z,7.20
2024-04-18T12:12:50.324Z,7.50
2024-04-18T12:13:50.372Z,7.70
2024-04-18T12:14:50.358Z,6.60
2024-04-18T12:15:50.365Z,9.30
2024-04-18T12:16:50.308Z,7.70
2024-04-18T12:17:50.289Z,7.90
2024-04-18T12:18:50.284Z,7.20
2024-04-18T12:19:50.246Z,8.00
2024-04-18T12:20:50.219Z,8.80
2024-04-18T12:21:50.227Z,7.90
2024-04-18T12:22:50.242Z,8.20
2024-04-18T12:23:50.176Z,7.90
2024-04-18T12:24:50.177Z,7.50
2024-04-18T12:25:50.189Z,9.60
2024-04-18T12:26:50.150Z,7.80
2024-04-18T12:27:50.201Z,7.10
2024-04-18T12:28:50.133Z,9.50
2024-04-18T12:29:50.089Z,8.00
2024-04-18T12:30:50.123Z,7.40
2024-04-18T12:31:50.067Z,8.40
2024-04-18T12:32:50.093Z,8.40
2024-04-18T12:33:50.747Z,7.20
2024-04-18T12:34:50.059Z,7.20
2024-04-18T12:35:50.045Z,8.50
2024-04-18T12:36:50.024Z,8.30
2024-04-18T12:37:50.046Z,8.70
2024-04-18T12:38:50.001Z,8.50
2024-04-18T12:39:50.005Z,9.20
2024-04-18T12:40:49.987Z,8.80
2024-04-18T12:41:49.994Z,7.60
2024-04-18T12:42:49.932Z,8.80
2024-04-18T12:43:49.959Z,13.20
2024-04-18T12:44:49.947Z,8.90
2024-04-18T12:45:50.080Z,9.60
2024-04-18T12:46:49.908Z,7.30
2024-04-18T12:47:49.919Z,7.50
2024-04-18T12:48:50.098Z,8.80
2024-04-18T12:49:49.955Z,8.80
2024-04-18T12:50:49.844Z,8.50
2024-04-18T12:51:49.854Z,7.80
2024-04-18T12:52:49.834Z,7.90
2024-04-18T12:53:50.353Z,8.20
2024-04-18T12:54:49.821Z,9.30
2024-04-18T12:55:49.789Z,7.10
2024-04-18T12:56:50.438Z,8.60
2024-04-18T12:57:49.781Z,7.80
2024-04-18T12:58:49.738Z,9.40
2024-04-18T12:59:49.704Z,6.90
2024-04-18T13:00:49.764Z,8.80
2024-04-18T13:01:49.733Z,8.80
2024-04-18T13:02:50.490Z,8.60
2024-04-18T13:03:51.481Z,9.40
2024-04-18T13:04:49.683Z,9.90
2024-04-18T13:05:49.639Z,11.60
2024-04-18T13:06:49.615Z,11.10
2024-04-18T13:07:49.600Z,9.80
2024-04-18T13:08:49.590Z,8.80
2024-04-18T13:09:49.634Z,8.70
2024-04-18T13:10:49.571Z,10.80
2024-04-18T13:11:49.546Z,10.90
2024-04-18T13:12:49.548Z,10.90
2024-04-18T13:13:49.622Z,11.80
2024-04-18T13:14:49.508Z,13.90
2024-04-18T13:15:53.751Z,12.00
2024-04-18T13:16:49.523Z,13.40